createdAt,value
2017-11-26T00:02:08.135Z,5.06
2017-11-26T00:04:35.694Z,4.98
2017-11-26T00:07:03.241Z,4.99
2017-11-26T00:09:30.773Z,5.06
2017-11-26T00:11:58.333Z,5.04
2017-11-26T00:14:25.937Z,5.06
2017-11-26T00:16:53.527Z,5.06
2017-11-26T00:19:21.123Z,5.04
2017-11-26T00:21:48.682Z,4.99
2017-11-26T00:24:16.239Z,5.02
2017-11-26T00:26:43.819Z,5.01
2017-11-26T00:29:11.638Z,4.96
2017-11-26T00:31:39.255Z,4.97
2017-11-26T00:34:06.850Z,4.95
2017-11-26T00:36:34.439Z,4.95
2017-11-26T00:39:02.217Z,4.91
2017-11-26T00:41:29.753Z,4.92
2017-11-26T00:43:57.315Z,4.91
2017-11-26T00:46:24.941Z,4.95
2017-11-26T00:48:52.499Z,5.00
2017-11-26T00:51:20.043Z,4.92
2017-11-26T00:53:47.618Z,4.87
2017-11-26T00:56:15.168Z,4.90
2017-11-26T00:58:42.732Z,4.91
2017-11-26T01:01:10.344Z,4.92
2017-11-26T01:03:37.897Z,4.97
2017-11-26T01:06:05.483Z,4.93
2017-11-26T01:08:33.056Z,4.85
2017-11-26T01:11:00.611Z,4.78
2017-11-26T01:13:28.168Z,4.73
2017-11-26T01:15:55.775Z,4.70
2017-11-26T01:18:23.322Z,4.64
2017-11-26T01:20:50.910Z,4.72
2017-11-26T01:23:18.481Z,4.69
2017-11-26T01:25:46.073Z,4.63
2017-11-26T01:28:13.676Z,4.61
2017-11-26T01:30:41.227Z,4.62
2017-11-26T01:33:08.923Z,4.63
2017-11-26T01:35:37.087Z,4.60
2017-11-26T01:38:04.669Z,4.63
2017-11-26T01:40:32.267Z,4.61
2017-11-26T01:42:59.825Z,4.62
2017-11-26T01:45:27.388Z,4.60
2017-11-26T01:47:54.963Z,4.66
2017-11-26T01:50:22.521Z,4.60
2017-11-26T01:52:50.096Z,4.59
2017-11-26T01:55:17.709Z,4.57
2017-11-26T01:57:45.381Z,4.55
2017-11-26T02:00:12.976Z,4.57
2017-11-26T02:02:40.582Z,4.56
2017-11-26T02:05:08.195Z,4.61
2017-11-26T02:07:35.755Z,4.62
2017-11-26T02:10:03.375Z,4.59
2017-11-26T02:12:31.013Z,4.59
2017-11-26T02:14:58.591Z,4.53
2017-11-26T02:17:26.150Z,4.58
2017-11-26T02:19:53.766Z,4.52
2017-11-26T02:22:21.391Z,4.49
2017-11-26T02:24:48.959Z,4.47
2017-11-26T02:27:16.540Z,4.48
2017-11-26T02:29:44.133Z,4.49
2017-11-26T02:32:23.366Z,4.46
2017-11-26T02:35:02.607Z,4.42
2017-11-26T02:37:30.170Z,4.43
2017-11-26T02:39:57.730Z,4.51
2017-11-26T02:42:25.332Z,4.53
2017-11-26T02:44:52.914Z,4.61
2017-11-26T02:47:20.870Z,4.60
2017-11-26T02:49:48.907Z,4.63
2017-11-26T02:52:16.509Z,4.59
2017-11-26T02:54:44.076Z,4.57
2017-11-26T02:57:11.658Z,4.56
2017-11-26T02:59:39.230Z,4.56
2017-11-26T03:02:06.824Z,4.58
2017-11-26T03:04:34.756Z,4.51
2017-11-26T03:07:02.403Z,4.46
2017-11-26T03:09:29.958Z,4.45
2017-11-26T03:11:57.645Z,4.44
2017-11-26T03:14:25.298Z,4.43
2017-11-26T03:16:53.256Z,4.42
2017-11-26T03:19:20.841Z,4.31
2017-11-26T03:21:48.409Z,4.21
2017-11-26T03:24:16.068Z,4.18
2017-11-26T03:26:43.683Z,4.17
2017-11-26T03:29:11.468Z,4.16
2017-11-26T03:31:39.049Z,4.19
2017-11-26T03:34:06.634Z,4.15
2017-11-26T03:36:34.212Z,4.18
2017-11-26T03:39:01.772Z,4.08
2017-11-26T03:41:29.359Z,4.00
2017-11-26T03:43:58.286Z,4.04
2017-11-26T03:46:25.982Z,4.01
2017-11-26T03:48:53.601Z,4.08
2017-11-26T03:51:21.161Z,4.16
2017-11-26T03:53:48.747Z,4.18
2017-11-26T03:56:16.313Z,4.19
2017-11-26T03:58:43.896Z,4.33
2017-11-26T04:01:11.983Z,4.30
2017-11-26T04:03:39.590Z,3.86
2017-11-26T04:06:07.139Z,3.42
2017-11-26T04:08:34.683Z,3.17
2017-11-26T04:11:02.270Z,3.02
2017-11-26T04:13:30.188Z,2.90
2017-11-26T04:15:57.961Z,2.78
2017-11-26T04:18:25.555Z,2.70
2017-11-26T04:20:53.106Z,2.64
2017-11-26T04:23:20.675Z,2.62
2017-11-26T04:25:48.276Z,2.58
2017-11-26T04:28:15.912Z,2.51
2017-11-26T04:30:43.491Z,2.48
2017-11-26T04:33:11.207Z,2.50
2017-11-26T04:35:38.760Z,2.49
2017-11-26T04:38:06.366Z,2.52
2017-11-26T04:40:33.935Z,2.49
2017-11-26T04:43:01.535Z,2.47
2017-11-26T04:45:29.104Z,2.38
2017-11-26T04:47:56.652Z,2.38
2017-11-26T04:50:24.293Z,2.43
2017-11-26T04:52:51.842Z,2.38
2017-11-26T04:55:19.413Z,2.35
2017-11-26T04:57:46.980Z,2.32
2017-11-26T05:00:14.556Z,2.31
2017-11-26T05:02:42.206Z,2.30
2017-11-26T05:05:10.119Z,2.36
2017-11-26T05:07:37.698Z,2.42
2017-11-26T05:10:05.275Z,2.41
2017-11-26T05:12:32.871Z,2.44
2017-11-26T05:15:00.417Z,2.43
2017-11-26T05:17:27.990Z,2.39
2017-11-26T05:19:55.556Z,2.41
2017-11-26T05:22:23.100Z,2.47
2017-11-26T05:24:50.681Z,2.52
2017-11-26T05:27:18.240Z,2.50
2017-11-26T05:29:45.811Z,2.51
2017-11-26T05:32:13.487Z,2.52
2017-11-26T05:34:41.111Z,2.38
2017-11-26T05:37:09.037Z,2.47
2017-11-26T05:39:36.595Z,2.52
2017-11-26T05:42:04.180Z,2.62
2017-11-26T05:44:31.710Z,2.63
2017-11-26T05:46:59.250Z,2.47
2017-11-26T05:49:26.918Z,2.29
2017-11-26T05:51:54.494Z,2.07
2017-11-26T05:54:22.880Z,2.00
2017-11-26T05:56:50.472Z,2.01
2017-11-26T05:59:18.020Z,1.99
2017-11-26T06:01:45.566Z,1.96
2017-11-26T06:04:13.158Z,1.89
2017-11-26T06:06:40.710Z,1.89
2017-11-26T06:09:08.290Z,1.93
2017-11-26T06:11:35.913Z,1.96
2017-11-26T06:14:03.487Z,2.00
2017-11-26T06:16:31.063Z,1.98
2017-11-26T06:18:58.628Z,2.03
2017-11-26T06:21:26.325Z,1.94
2017-11-26T06:23:53.876Z,1.85
2017-11-26T06:26:22.484Z,1.78
2017-11-26T06:28:50.037Z,1.75
2017-11-26T06:31:17.589Z,1.68
2017-11-26T06:33:45.213Z,1.65
2017-11-26T06:36:12.775Z,1.76
2017-11-26T06:38:40.384Z,1.75
2017-11-26T06:41:08.416Z,1.77
2017-11-26T06:43:38.138Z,1.76
2017-11-26T06:46:05.726Z,1.87
2017-11-26T06:48:33.308Z,1.88
2017-11-26T06:51:00.866Z,1.90
2017-11-26T06:53:28.435Z,1.89
2017-11-26T06:55:56.032Z,1.90
2017-11-26T06:58:23.977Z,1.90
2017-11-26T07:00:51.567Z,1.90
2017-11-26T07:03:19.143Z,1.88
2017-11-26T07:05:46.703Z,1.96
2017-11-26T07:08:14.272Z,2.02
2017-11-26T07:10:41.844Z,2.03
2017-11-26T07:13:11.418Z,2.02
2017-11-26T07:15:38.998Z,2.10
2017-11-26T07:18:06.703Z,2.16
2017-11-26T07:20:34.296Z,2.21
2017-11-26T07:23:01.907Z,2.21
2017-11-26T07:25:29.504Z,2.19
2017-11-26T07:27:57.070Z,2.24
2017-11-26T07:30:24.779Z,2.28
2017-11-26T07:32:52.316Z,2.35
2017-11-26T07:35:19.878Z,2.41
2017-11-26T07:37:47.450Z,2.44
2017-11-26T07:40:15.071Z,2.50
2017-11-26T07:42:42.680Z,2.55
2017-11-26T07:45:10.429Z,2.59
2017-11-26T07:47:39.003Z,2.58
2017-11-26T07:50:06.711Z,2.57
2017-11-26T07:52:34.264Z,2.59
2017-11-26T07:55:01.839Z,2.60
2017-11-26T07:57:29.418Z,2.60
2017-11-26T07:59:56.998Z,2.62
2017-11-26T08:02:24.573Z,2.71
2017-11-26T08:04:52.156Z,2.77
2017-11-26T08:07:19.739Z,2.87
2017-11-26T08:09:47.370Z,2.95
2017-11-26T08:12:14.925Z,3.03
2017-11-26T08:14:42.478Z,3.10
2017-11-26T08:17:10.369Z,3.07
2017-11-26T08:19:37.985Z,3.09
2017-11-26T08:24:39.421Z,2.98
2017-11-26T08:27:07.008Z,3.00
2017-11-26T08:29:35.628Z,3.00
2017-11-26T08:32:03.177Z,3.06
2017-11-26T08:34:30.741Z,3.08
2017-11-26T08:36:58.302Z,3.07
2017-11-26T08:39:25.852Z,3.19
2017-11-26T08:41:53.467Z,3.28
2017-11-26T08:44:21.247Z,3.33
2017-11-26T08:46:48.845Z,3.44
2017-11-26T08:49:16.481Z,3.40
2017-11-26T08:51:44.141Z,3.40
2017-11-26T08:54:11.756Z,3.32
2017-11-26T08:56:39.318Z,3.34
2017-11-26T08:59:06.927Z,3.39
2017-11-26T09:01:34.563Z,3.43
2017-11-26T09:04:02.128Z,3.47
2017-11-26T09:09:29.069Z,3.53
2017-11-26T09:11:56.863Z,3.57
2017-11-26T09:14:24.444Z,3.40
2017-11-26T09:16:52.012Z,3.40
2017-11-26T09:19:19.639Z,3.46
2017-11-26T09:21:47.216Z,3.43
2017-11-26T09:24:16.468Z,3.64
2017-11-26T09:26:44.141Z,3.72
2017-11-26T09:29:12.139Z,3.81
2017-11-26T09:31:39.694Z,3.72
2017-11-26T09:34:07.259Z,3.67
2017-11-26T09:36:34.887Z,3.66
2017-11-26T09:39:02.451Z,3.51
2017-11-26T09:41:30.087Z,3.51
2017-11-26T09:43:58.069Z,3.63
2017-11-26T09:46:26.000Z,3.60
2017-11-26T09:48:53.568Z,3.73
2017-11-26T09:51:21.431Z,3.69
2017-11-26T09:53:49.048Z,3.45
2017-11-26T09:56:17.916Z,3.46
2017-11-26T09:58:45.877Z,3.58
2017-11-26T10:01:13.562Z,3.59
2017-11-26T10:03:41.182Z,3.41
2017-11-26T10:06:08.811Z,3.34
2017-11-26T10:08:36.439Z,3.41
2017-11-26T10:11:04.099Z,3.33
2017-11-26T10:13:31.690Z,3.35
2017-11-26T10:15:59.244Z,3.20
2017-11-26T10:18:26.828Z,3.24
2017-11-26T10:20:54.399Z,3.24
2017-11-26T10:23:22.025Z,3.29
2017-11-26T10:25:49.613Z,3.28
2017-11-26T10:28:17.193Z,3.30
2017-11-26T10:30:44.776Z,3.42
2017-11-26T10:33:12.748Z,3.38
2017-11-26T10:35:40.327Z,3.49
2017-11-26T10:38:07.928Z,3.50
2017-11-26T10:40:35.748Z,3.44
2017-11-26T10:43:03.310Z,3.30
2017-11-26T10:45:30.893Z,3.40
2017-11-26T10:47:58.486Z,3.37
2017-11-26T10:50:26.033Z,3.52
2017-11-26T10:52:53.591Z,3.32
2017-11-26T10:55:23.119Z,3.18
2017-11-26T10:57:50.715Z,3.23
2017-11-26T11:00:18.319Z,3.42
2017-11-26T11:02:45.962Z,3.51
2017-11-26T11:05:14.373Z,3.49
2017-11-26T11:07:41.976Z,3.50
2017-11-26T11:10:09.569Z,3.48
2017-11-26T11:12:37.189Z,3.54
2017-11-26T11:15:04.786Z,3.50
2017-11-26T11:17:32.335Z,3.36
2017-11-26T11:19:59.919Z,3.31
2017-11-26T11:22:29.543Z,3.36
2017-11-26T11:24:57.110Z,3.53
2017-11-26T11:27:24.798Z,3.59
2017-11-26T11:29:52.656Z,3.58
2017-11-26T11:32:20.204Z,3.48
2017-11-26T11:34:47.782Z,3.47
2017-11-26T11:37:16.156Z,3.59
2017-11-26T11:39:43.733Z,3.55
2017-11-26T11:42:11.341Z,3.47
2017-11-26T11:44:38.945Z,3.46
2017-11-26T11:47:06.518Z,3.28
2017-11-26T11:49:35.209Z,3.04
2017-11-26T11:52:02.795Z,2.98
2017-11-26T11:54:30.555Z,2.90
2017-11-26T11:56:58.143Z,2.99
2017-11-26T11:59:27.339Z,2.92
2017-11-26T12:01:54.904Z,2.86
2017-11-26T12:04:23.367Z,2.92
2017-11-26T12:06:50.970Z,2.85
2017-11-26T12:09:18.523Z,2.81
2017-11-26T12:11:46.131Z,2.91
2017-11-26T12:14:13.806Z,2.88
2017-11-26T12:16:41.412Z,2.87
2017-11-26T12:19:09.448Z,2.88
2017-11-26T12:21:37.123Z,2.87
2017-11-26T12:24:04.738Z,2.85
2017-11-26T12:26:32.370Z,2.83
2017-11-26T12:28:59.957Z,2.82
2017-11-26T12:31:29.174Z,2.83
2017-11-26T12:33:56.800Z,2.84
2017-11-26T12:36:25.285Z,2.72
2017-11-26T12:38:52.944Z,2.66
2017-11-26T12:41:20.781Z,2.57
2017-11-26T12:43:48.337Z,2.55
2017-11-26T12:46:16.034Z,2.57
2017-11-26T12:48:43.584Z,2.51
2017-11-26T12:51:11.533Z,2.57
2017-11-26T12:53:39.137Z,2.50
2017-11-26T12:56:06.733Z,2.51
2017-11-26T12:58:34.318Z,2.53
2017-11-26T13:01:01.910Z,2.61
2017-11-26T13:03:29.463Z,2.60
2017-11-26T13:05:57.055Z,2.59
2017-11-26T13:08:24.628Z,2.55
2017-11-26T13:10:52.242Z,2.59
2017-11-26T13:13:19.866Z,2.43
2017-11-26T13:15:47.454Z,2.50
2017-11-26T13:18:15.227Z,2.50
2017-11-26T13:20:42.811Z,2.55
2017-11-26T13:23:12.009Z,2.45
2017-11-26T13:25:39.667Z,2.49
2017-11-26T13:28:07.268Z,2.47
2017-11-26T13:30:35.629Z,2.46
2017-11-26T13:33:03.233Z,2.52
2017-11-26T13:35:30.793Z,2.48
2017-11-26T13:37:58.420Z,2.49
2017-11-26T13:40:26.034Z,2.46
2017-11-26T13:42:53.598Z,2.41
2017-11-26T13:45:21.211Z,2.47
2017-11-26T13:47:48.784Z,2.52
2017-11-26T13:50:16.371Z,2.37
2017-11-26T13:52:44.002Z,2.41
2017-11-26T13:55:11.516Z,2.42
2017-11-26T13:57:39.048Z,2.41
2017-11-26T14:00:06.630Z,2.33
2017-11-26T14:02:34.158Z,2.25
2017-11-26T14:05:01.775Z,2.23
2017-11-26T14:07:46.944Z,2.27
2017-11-26T14:10:14.601Z,2.21
2017-11-26T14:12:42.189Z,2.16
2017-11-26T14:15:09.853Z,2.12
2017-11-26T14:17:37.510Z,2.12
2017-11-26T14:20:05.048Z,2.13
2017-11-26T14:22:32.553Z,2.15
2017-11-26T14:25:06.071Z,2.13
2017-11-26T14:27:33.623Z,2.10
2017-11-26T14:30:01.192Z,2.08
2017-11-26T14:32:28.771Z,2.05
2017-11-26T14:34:56.366Z,1.99
2017-11-26T14:37:23.982Z,2.02
2017-11-26T14:39:51.616Z,2.00
2017-11-26T14:42:19.238Z,1.99
2017-11-26T14:44:46.844Z,2.02
2017-11-26T14:47:14.433Z,1.98
2017-11-26T14:49:42.044Z,2.01
2017-11-26T14:52:09.605Z,2.02
2017-11-26T14:54:37.177Z,1.95
2017-11-26T14:57:04.788Z,1.90
2017-11-26T14:59:32.411Z,1.78
2017-11-26T15:01:59.978Z,1.71
2017-11-26T15:04:27.619Z,1.71
2017-11-26T15:06:55.211Z,1.58
2017-11-26T15:09:22.751Z,1.50
2017-11-26T15:11:51.047Z,1.46
2017-11-26T15:14:18.626Z,1.43
2017-11-26T15:16:46.185Z,1.36
2017-11-26T15:19:14.261Z,1.33
2017-11-26T15:21:41.887Z,1.37
2017-11-26T15:24:09.449Z,1.39
2017-11-26T15:26:37.432Z,1.38
2017-11-26T15:29:07.041Z,1.39
2017-11-26T15:31:35.966Z,1.39
2017-11-26T15:34:03.553Z,1.39
2017-11-26T15:36:31.148Z,1.41
2017-11-26T15:38:59.148Z,1.38
2017-11-26T15:41:26.995Z,1.34
2017-11-26T15:43:54.569Z,1.42
2017-11-26T15:46:22.153Z,1.43
2017-11-26T15:48:49.986Z,1.43
2017-11-26T15:51:17.585Z,1.46
2017-11-26T15:53:45.252Z,1.46
2017-11-26T15:56:12.943Z,1.39
2017-11-26T15:58:40.519Z,1.37
2017-11-26T16:01:08.710Z,1.43
2017-11-26T16:03:36.274Z,1.46
2017-11-26T16:06:03.841Z,1.44
2017-11-26T16:08:31.442Z,1.48
2017-11-26T16:10:58.997Z,1.41
2017-11-26T16:13:26.609Z,1.39
2017-11-26T16:15:54.387Z,1.33
2017-11-26T16:18:23.184Z,1.25
2017-11-26T16:20:50.931Z,1.13
2017-11-26T16:23:19.133Z,1.04
2017-11-26T16:25:47.031Z,0.95
2017-11-26T16:28:15.308Z,0.92
2017-11-26T16:30:42.967Z,0.94
2017-11-26T16:33:10.534Z,0.84
2017-11-26T16:35:39.114Z,0.70
2017-11-26T16:38:06.759Z,0.62
2017-11-26T16:40:34.308Z,0.63
2017-11-26T16:43:01.909Z,0.70
2017-11-26T16:45:29.525Z,0.72
2017-11-26T16:47:57.085Z,0.71
2017-11-26T16:50:24.668Z,0.66
2017-11-26T16:52:52.230Z,0.54
2017-11-26T16:55:19.791Z,0.45
2017-11-26T16:57:47.343Z,0.39
2017-11-26T17:00:14.861Z,0.40
2017-11-26T17:02:42.431Z,0.32
2017-11-26T17:05:10.166Z,0.22
2017-11-26T17:07:37.882Z,0.18
2017-11-26T17:10:05.447Z,0.21
2017-11-26T17:12:33.013Z,0.16
2017-11-26T17:15:00.574Z,0.19
2017-11-26T17:17:28.260Z,0.33
2017-11-26T17:19:55.844Z,0.35
2017-11-26T17:22:24.260Z,0.30
2017-11-26T17:24:51.830Z,0.26
2017-11-26T17:27:19.377Z,0.26
2017-11-26T17:29:46.940Z,0.32
2017-11-26T17:32:14.506Z,0.33
2017-11-26T17:34:42.057Z,0.34
2017-11-26T17:37:09.987Z,0.47
2017-11-26T17:39:37.526Z,0.64
2017-11-26T17:42:05.064Z,0.70
2017-11-26T17:44:32.730Z,0.62
2017-11-26T17:47:00.308Z,0.63
2017-11-26T17:49:28.095Z,0.69
2017-11-26T17:51:55.882Z,0.82
2017-11-26T17:59:47.269Z,1.03
2017-11-26T18:02:14.815Z,1.09
2017-11-26T18:04:42.343Z,1.12
2017-11-26T18:07:10.217Z,1.18
2017-11-26T18:09:37.784Z,1.28
2017-11-26T18:12:05.536Z,1.35
2017-11-26T18:14:33.251Z,1.39
2017-11-26T18:17:00.820Z,1.45
2017-11-26T18:19:28.429Z,1.46
2017-11-26T18:21:56.138Z,1.48
2017-11-26T18:24:23.689Z,1.49
2017-11-26T18:26:51.266Z,1.43
2017-11-26T18:29:18.879Z,1.42
2017-11-26T18:31:46.439Z,1.32
2017-11-26T18:34:14.027Z,1.30
2017-11-26T18:36:41.586Z,1.22
2017-11-26T18:39:09.492Z,1.14
2017-11-26T18:41:37.055Z,1.21
2017-11-26T18:44:04.657Z,1.21
2017-11-26T18:46:32.197Z,1.17
2017-11-26T18:48:59.733Z,1.16
2017-11-26T18:51:27.374Z,1.17
2017-11-26T18:53:54.909Z,1.14
2017-11-26T18:56:23.023Z,1.07
2017-11-26T18:58:50.581Z,0.96
2017-11-26T19:01:18.187Z,0.87
2017-11-26T19:03:45.861Z,0.83
2017-11-26T19:06:13.433Z,0.80
2017-11-26T19:08:41.015Z,0.74
2017-11-26T19:11:08.795Z,0.67
2017-11-26T19:13:36.374Z,0.65
2017-11-26T19:16:04.000Z,0.79
2017-11-26T19:18:31.549Z,0.87
2017-11-26T19:20:59.095Z,0.88
2017-11-26T19:23:26.657Z,0.86
2017-11-26T19:25:54.229Z,0.80
2017-11-26T19:28:21.778Z,0.84
2017-11-26T19:30:49.322Z,0.71
2017-11-26T19:33:16.930Z,0.76
2017-11-26T19:35:44.548Z,0.98
2017-11-26T19:38:12.123Z,0.94
2017-11-26T19:40:39.692Z,0.98
2017-11-26T19:43:07.310Z,0.98
2017-11-26T19:45:34.861Z,0.83
2017-11-26T19:48:02.401Z,0.78
2017-11-26T19:50:30.008Z,0.82
2017-11-26T19:52:57.551Z,0.82
2017-11-26T19:55:25.116Z,0.78
2017-11-26T19:57:52.798Z,0.61
2017-11-26T20:00:20.331Z,0.73
2017-11-26T20:02:47.872Z,0.77
2017-11-26T20:05:15.498Z,0.81
2017-11-26T20:07:43.086Z,0.78
2017-11-26T20:10:10.689Z,0.76
2017-11-26T20:12:38.296Z,0.75
2017-11-26T20:15:05.910Z,0.75
2017-11-26T20:17:33.492Z,0.77
2017-11-26T20:20:01.065Z,0.72
2017-11-26T20:22:28.645Z,0.67
2017-11-26T20:24:56.198Z,0.59
2017-11-26T20:27:23.785Z,0.60
2017-11-26T20:29:51.346Z,0.57
2017-11-26T20:32:18.915Z,0.57
2017-11-26T20:34:46.539Z,0.57
2017-11-26T20:37:14.129Z,0.63
2017-11-26T20:39:41.675Z,0.57
2017-11-26T20:42:09.280Z,0.52
2017-11-26T20:44:36.823Z,0.56
2017-11-26T20:47:04.390Z,0.65
2017-11-26T20:49:32.019Z,0.66
2017-11-26T20:51:59.567Z,0.71
2017-11-26T20:54:27.129Z,0.74
2017-11-26T20:56:54.707Z,0.72
2017-11-26T20:59:22.269Z,0.73
2017-11-26T21:01:49.799Z,0.76
2017-11-26T21:04:17.450Z,0.67
2017-11-26T21:06:44.945Z,0.71
2017-11-26T21:09:12.495Z,0.77
2017-11-26T21:11:40.348Z,0.71
2017-11-26T21:14:07.916Z,0.71
2017-11-26T21:16:35.495Z,0.74
2017-11-26T21:19:03.198Z,0.73
2017-11-26T21:21:30.743Z,0.72
2017-11-26T21:23:58.544Z,0.71
2017-11-26T21:26:26.450Z,0.66
2017-11-26T21:28:54.003Z,0.60
2017-11-26T21:31:21.586Z,0.57
2017-11-26T21:33:49.138Z,0.53
2017-11-26T21:36:16.685Z,0.58
2017-11-26T21:38:44.293Z,0.60
2017-11-26T21:41:12.096Z,0.63
2017-11-26T21:43:39.665Z,0.59
2017-11-26T21:46:07.223Z,0.59
2017-11-26T21:48:34.748Z,0.69
2017-11-26T21:51:02.811Z,0.67
2017-11-26T21:53:31.150Z,0.65
2017-11-26T21:55:58.743Z,0.59
2017-11-26T21:58:26.287Z,0.43
2017-11-26T22:00:53.866Z,0.50
2017-11-26T22:03:21.831Z,0.42
2017-11-26T22:05:49.418Z,0.41
2017-11-26T22:08:17.004Z,0.40
2017-11-26T22:10:44.558Z,0.36
2017-11-26T22:13:14.037Z,0.39
2017-11-26T22:15:41.612Z,0.40
2017-11-26T22:18:09.165Z,0.46
2017-11-26T22:20:36.711Z,0.56
2017-11-26T22:23:04.485Z,0.52
2017-11-26T22:25:32.014Z,0.53
2017-11-26T22:27:59.547Z,0.57
2017-11-26T22:30:27.100Z,0.66
2017-11-26T22:32:54.649Z,0.65
2017-11-26T22:35:22.920Z,0.66
2017-11-26T22:37:50.467Z,0.68
2017-11-26T22:40:18.015Z,0.71
2017-11-26T22:42:45.585Z,0.64
2017-11-26T22:45:13.163Z,0.73
2017-11-26T22:47:40.700Z,0.74
2017-11-26T22:50:08.237Z,0.74
2017-11-26T22:52:35.785Z,0.71
2017-11-26T22:55:03.345Z,0.74
2017-11-26T22:57:30.884Z,0.79
2017-11-26T22:59:58.510Z,0.88
2017-11-26T23:02:26.061Z,0.82
2017-11-26T23:04:53.587Z,0.82
2017-11-26T23:07:21.157Z,0.74
2017-11-26T23:09:48.680Z,0.75
2017-11-26T23:12:16.307Z,0.76
2017-11-26T23:14:43.868Z,0.82
2017-11-26T23:17:12.161Z,0.86
2017-11-26T23:19:39.698Z,0.91
2017-11-26T23:22:07.245Z,0.93
2017-11-26T23:24:34.783Z,0.92
2017-11-26T23:27:02.617Z,0.90
2017-11-26T23:29:30.169Z,0.98
2017-11-26T23:31:57.749Z,0.96
2017-11-26T23:34:25.315Z,0.97
2017-11-26T23:36:52.874Z,0.94
2017-11-26T23:39:20.551Z,1.03
2017-11-26T23:41:48.128Z,0.96
2017-11-26T23:44:15.713Z,0.87
2017-11-26T23:46:43.281Z,0.97
2017-11-26T23:49:10.922Z,0.96
2017-11-26T23:51:39.214Z,0.95
2017-11-26T23:54:06.920Z,0.86
2017-11-26T23:56:34.496Z,1.00
2017-11-26T23:59:02.112Z,0.95
